sensor_id;sensor_type;location;lat;lon;timestamp;P1;durP1;ratioP1;P2;durP2;ratioP2
5499;SDS011;2772;42.700;23.304;2023-05-20T00:00:00;27.17;;;15.90;;
5499;SDS011;2772;42.700;23.304;2023-05-20T00:02:27;28.27;;;15.30;;
5499;SDS011;2772;42.700;23.304;2023-05-20T00:04:53;29.10;;;16.97;;
5499;SDS011;2772;42.700;23.304;2023-05-20T00:07:20;34.77;;;18.60;;
5499;SDS011;2772;42.700;23.304;2023-05-20T00:09:47;44.03;;;18.30;;
5499;SDS011;2772;42.700;23.304;2023-05-20T00:12:16;29.57;;;17.70;;
5499;SDS011;2772;42.700;23.304;2023-05-20T00:14:43;31.30;;;18.60;;
5499;SDS011;2772;42.700;23.304;2023-05-20T00:17:09;30.00;;;17.53;;
5499;SDS011;2772;42.700;23.304;2023-05-20T00:19:36;19.60;;;13.27;;
5499;SDS011;2772;42.700;23.304;2023-05-20T00:22:03;29.63;;;17.17;;
5499;SDS011;2772;42.700;23.304;2023-05-20T00:24:30;29.93;;;15.30;;
5499;SDS011;2772;42.700;23.304;2023-05-20T00:26:57;31.20;;;16.17;;
5499;SDS011;2772;42.700;23.304;2023-05-20T00:29:25;30.83;;;19.17;;
5499;SDS011;2772;42.700;23.304;2023-05-20T00:31:52;24.47;;;15.07;;
5499;SDS011;2772;42.700;23.304;2023-05-20T00:34:19;39.20;;;19.30;;
5499;SDS011;2772;42.700;23.304;2023-05-20T00:36:46;26.03;;;15.33;;
5499;SDS011;2772;42.700;23.304;2023-05-20T00:39:12;25.10;;;15.70;;
5499;SDS011;2772;42.700;23.304;2023-05-20T00:41:39;28.20;;;17.50;;
5499;SDS011;2772;42.700;23.304;2023-05-20T00:44:06;34.57;;;17.20;;
5499;SDS011;2772;42.700;23.304;2023-05-20T00:46:34;30.57;;;16.57;;
5499;SDS011;2772;42.700;23.304;2023-05-20T00:49:01;22.50;;;13.93;;
5499;SDS011;2772;42.700;23.304;2023-05-20T00:51:28;23.53;;;15.00;;
5499;SDS011;2772;42.700;23.304;2023-05-20T00:53:55;27.80;;;14.90;;
5499;SDS011;2772;42.700;23.304;2023-05-20T00:56:22;27.80;;;14.43;;
5499;SDS011;2772;42.700;23.304;2023-05-20T00:58:48;24.77;;;15.40;;
5499;SDS011;2772;42.700;23.304;2023-05-20T01:01:16;22.70;;;12.43;;
5499;SDS011;2772;42.700;23.304;2023-05-20T01:03:44;18.33;;;12.43;;
5499;SDS011;2772;42.700;23.304;2023-05-20T01:06:12;26.43;;;14.97;;
5499;SDS011;2772;42.700;23.304;2023-05-20T01:08:39;21.70;;;14.13;;
5499;SDS011;2772;42.700;23.304;2023-05-20T01:11:07;19.97;;;12.00;;
5499;SDS011;2772;42.700;23.304;2023-05-20T01:13:38;20.73;;;13.20;;
5499;SDS011;2772;42.700;23.304;2023-05-20T01:16:11;23.03;;;13.13;;
5499;SDS011;2772;42.700;23.304;2023-05-20T01:18:41;20.33;;;13.57;;
5499;SDS011;2772;42.700;23.304;2023-05-20T01:21:12;17.60;;;12.70;;
5499;SDS011;2772;42.700;23.304;2023-05-20T01:23:42;16.87;;;11.87;;
5499;SDS011;2772;42.700;23.304;2023-05-20T01:26:08;19.83;;;12.83;;
5499;SDS011;2772;42.700;23.304;2023-05-20T01:28:37;23.33;;;13.30;;
5499;SDS011;2772;42.700;23.304;2023-05-20T01:31:05;19.23;;;11.37;;
5499;SDS011;2772;42.700;23.304;2023-05-20T01:33:37;21.23;;;12.10;;
5499;SDS011;2772;42.700;23.304;2023-05-20T01:36:06;18.00;;;12.33;;
5499;SDS011;2772;42.700;23.304;2023-05-20T01:38:35;25.53;;;12.27;;
5499;SDS011;2772;42.700;23.304;2023-05-20T01:41:04;22.43;;;12.87;;
5499;SDS011;2772;42.700;23.304;2023-05-20T01:43:32;21.37;;;12.67;;
5499;SDS011;2772;42.700;23.304;2023-05-20T01:46:00;18.77;;;12.83;;
5499;SDS011;2772;42.700;23.304;2023-05-20T01:48:27;25.90;;;11.80;;
5499;SDS011;2772;42.700;23.304;2023-05-20T01:50:54;22.03;;;11.87;;
5499;SDS011;2772;42.700;23.304;2023-05-20T01:53:20;23.73;;;11.70;;
5499;SDS011;2772;42.700;23.304;2023-05-20T01:55:47;18.27;;;11.43;;
5499;SDS011;2772;42.700;23.304;2023-05-20T01:58:15;19.80;;;12.20;;
5499;SDS011;2772;42.700;23.304;2023-05-20T02:00:42;19.07;;;13.57;;
5499;SDS011;2772;42.700;23.304;2023-05-20T02:03:09;17.00;;;11.93;;
5499;SDS011;2772;42.700;23.304;2023-05-20T02:05:36;21.20;;;12.50;;
5499;SDS011;2772;42.700;23.304;2023-05-20T02:08:02;19.83;;;12.17;;
5499;SDS011;2772;42.700;23.304;2023-05-20T02:10:30;22.43;;;11.70;;
5499;SDS011;2772;42.700;23.304;2023-05-20T02:12:56;18.20;;;11.50;;
5499;SDS011;2772;42.700;23.304;2023-05-20T02:15:24;23.10;;;12.43;;
5499;SDS011;2772;42.700;23.304;2023-05-20T02:17:51;18.77;;;11.77;;
5499;SDS011;2772;42.700;23.304;2023-05-20T02:20:18;23.87;;;11.70;;
5499;SDS011;2772;42.700;23.304;2023-05-20T02:22:45;24.57;;;11.93;;
5499;SDS011;2772;42.700;23.304;2023-05-20T02:25:12;18.30;;;11.50;;
5499;SDS011;2772;42.700;23.304;2023-05-20T02:27:39;22.87;;;11.70;;
5499;SDS011;2772;42.700;23.304;2023-05-20T02:30:06;15.03;;;11.70;;
5499;SDS011;2772;42.700;23.304;2023-05-20T02:32:34;18.60;;;11.60;;
5499;SDS011;2772;42.700;23.304;2023-05-20T02:35:02;19.23;;;12.00;;
5499;SDS011;2772;42.700;23.304;2023-05-20T02:37:29;16.70;;;11.90;;
5499;SDS011;2772;42.700;23.304;2023-05-20T02:39:55;18.93;;;12.43;;
5499;SDS011;2772;42.700;23.304;2023-05-20T02:42:22;17.77;;;11.60;;
5499;SDS011;2772;42.700;23.304;2023-05-20T02:44:49;20.27;;;11.67;;
5499;SDS011;2772;42.700;23.304;2023-05-20T02:47:17;25.53;;;11.70;;
5499;SDS011;2772;42.700;23.304;2023-05-20T02:49:45;16.87;;;11.90;;
5499;SDS011;2772;42.700;23.304;2023-05-20T02:52:12;15.60;;;12.03;;
5499;SDS011;2772;42.700;23.304;2023-05-20T02:54:40;20.07;;;10.50;;
5499;SDS011;2772;42.700;23.304;2023-05-20T02:57:06;16.03;;;10.63;;
5499;SDS011;2772;42.700;23.304;2023-05-20T02:59:33;16.77;;;11.10;;
5499;SDS011;2772;42.700;23.304;2023-05-20T03:02:00;23.20;;;12.00;;
5499;SDS011;2772;42.700;23.304;2023-05-20T03:04:27;14.20;;;10.87;;
5499;SDS011;2772;42.700;23.304;2023-05-20T03:06:55;16.93;;;11.07;;
5499;SDS011;2772;42.700;23.304;2023-05-20T03:09:22;19.67;;;12.00;;
5499;SDS011;2772;42.700;23.304;2023-05-20T03:11:49;19.20;;;11.27;;
5499;SDS011;2772;42.700;23.304;2023-05-20T03:14:15;14.60;;;10.50;;
5499;SDS011;2772;42.700;23.304;2023-05-20T03:16:42;15.47;;;11.70;;
5499;SDS011;2772;42.700;23.304;2023-05-20T03:19:09;32.73;;;12.17;;
5499;SDS011;2772;42.700;23.304;2023-05-20T03:21:35;18.47;;;12.03;;
5499;SDS011;2772;42.700;23.304;2023-05-20T03:24:04;20.90;;;12.13;;
5499;SDS011;2772;42.700;23.304;2023-05-20T03:26:31;20.53;;;11.43;;
5499;SDS011;2772;42.700;23.304;2023-05-20T03:29:01;19.30;;;12.47;;
5499;SDS011;2772;42.700;23.304;2023-05-20T03:31:28;18.57;;;11.93;;
5499;SDS011;2772;42.700;23.304;2023-05-20T03:33:54;28.33;;;13.03;;
5499;SDS011;2772;42.700;23.304;2023-05-20T03:36:21;28.87;;;14.27;;
5499;SDS011;2772;42.700;23.304;2023-05-20T03:38:48;21.20;;;11.93;;
5499;SDS011;2772;42.700;23.304;2023-05-20T03:41:16;18.47;;;11.97;;
5499;SDS011;2772;42.700;23.304;2023-05-20T03:43:42;24.87;;;11.63;;
5499;SDS011;2772;42.700;23.304;2023-05-20T03:46:09;28.90;;;12.00;;
5499;SDS011;2772;42.700;23.304;2023-05-20T03:48:36;26.00;;;13.33;;
5499;SDS011;2772;42.700;23.304;2023-05-20T03:51:02;25.63;;;13.77;;
5499;SDS011;2772;42.700;23.304;2023-05-20T03:53:29;21.30;;;12.57;;
5499;SDS011;2772;42.700;23.304;2023-05-20T03:55:56;19.97;;;12.40;;
5499;SDS011;2772;42.700;23.304;2023-05-20T03:58:24;22.97;;;12.10;;
5499;SDS011;2772;42.700;23.304;2023-05-20T04:00:53;17.93;;;11.60;;
5499;SDS011;2772;42.700;23.304;2023-05-20T04:03:19;19.50;;;13.20;;
5499;SDS011;2772;42.700;23.304;2023-05-20T04:05:46;18.13;;;12.03;;
5499;SDS011;2772;42.700;23.304;2023-05-20T04:08:13;23.23;;;11.60;;
5499;SDS011;2772;42.700;23.304;2023-05-20T04:10:40;23.00;;;12.30;;
5499;SDS011;2772;42.700;23.304;2023-05-20T04:13:07;31.60;;;13.57;;
5499;SDS011;2772;42.700;23.304;2023-05-20T04:15:37;38.03;;;12.33;;
5499;SDS011;2772;42.700;23.304;2023-05-20T04:18:05;18.77;;;11.40;;
5499;SDS011;2772;42.700;23.304;2023-05-20T04:20:32;28.33;;;13.30;;
5499;SDS011;2772;42.700;23.304;2023-05-20T04:22:59;33.50;;;13.77;;
5499;SDS011;2772;42.700;23.304;2023-05-20T04:25:26;23.90;;;14.57;;
5499;SDS011;2772;42.700;23.304;2023-05-20T04:27:52;19.80;;;14.23;;
5499;SDS011;2772;42.700;23.304;2023-05-20T04:30:19;21.75;;;13.48;;
5499;SDS011;2772;42.700;23.304;2023-05-20T04:32:48;21.37;;;12.60;;
5499;SDS011;2772;42.700;23.304;2023-05-20T04:35:15;23.87;;;13.77;;
5499;SDS011;2772;42.700;23.304;2023-05-20T04:37:42;24.57;;;13.50;;
5499;SDS011;2772;42.700;23.304;2023-05-20T04:40:12;25.17;;;15.33;;
5499;SDS011;2772;42.700;23.304;2023-05-20T04:42:39;23.30;;;15.33;;
5499;SDS011;2772;42.700;23.304;2023-05-20T04:45:06;33.07;;;15.27;;
5499;SDS011;2772;42.700;23.304;2023-05-20T04:47:33;30.73;;;16.90;;
5499;SDS011;2772;42.700;23.304;2023-05-20T04:50:04;29.53;;;16.13;;
5499;SDS011;2772;42.700;23.304;2023-05-20T04:52:32;40.97;;;17.37;;
5499;SDS011;2772;42.700;23.304;2023-05-20T04:54:59;38.87;;;17.30;;
5499;SDS011;2772;42.700;23.304;2023-05-20T04:57:26;26.97;;;17.20;;
5499;SDS011;2772;42.700;23.304;2023-05-20T04:59:58;32.43;;;16.50;;
5499;SDS011;2772;42.700;23.304;2023-05-20T05:02:26;32.33;;;17.03;;
5499;SDS011;2772;42.700;23.304;2023-05-20T05:04:52;39.93;;;18.70;;
5499;SDS011;2772;42.700;23.304;2023-05-20T05:07:20;32.73;;;17.50;;
5499;SDS011;2772;42.700;23.304;2023-05-20T05:09:48;25.40;;;16.10;;
5499;SDS011;2772;42.700;23.304;2023-05-20T05:12:14;30.07;;;18.57;;
5499;SDS011;2772;42.700;23.304;2023-05-20T05:14:41;24.60;;;16.27;;
5499;SDS011;2772;42.700;23.304;2023-05-20T05:17:08;25.37;;;17.17;;
5499;SDS011;2772;42.700;23.304;2023-05-20T05:19:35;27.70;;;17.93;;
5499;SDS011;2772;42.700;23.304;2023-05-20T05:22:02;34.03;;;18.73;;
5499;SDS011;2772;42.700;23.304;2023-05-20T05:24:31;28.20;;;18.23;;
5499;SDS011;2772;42.700;23.304;2023-05-20T05:26:58;37.20;;;19.33;;
5499;SDS011;2772;42.700;23.304;2023-05-20T05:29:25;32.10;;;18.30;;
5499;SDS011;2772;42.700;23.304;2023-05-20T05:31:52;35.07;;;18.00;;
5499;SDS011;2772;42.700;23.304;2023-05-20T05:34:19;29.57;;;18.57;;
5499;SDS011;2772;42.700;23.304;2023-05-20T05:36:46;34.40;;;18.77;;
5499;SDS011;2772;42.700;23.304;2023-05-20T05:39:12;36.83;;;18.37;;
5499;SDS011;2772;42.700;23.304;2023-05-20T05:41:41;30.00;;;17.50;;
5499;SDS011;2772;42.700;23.304;2023-05-20T05:44:07;25.90;;;17.10;;
5499;SDS011;2772;42.700;23.304;2023-05-20T05:46:34;25.27;;;16.43;;
5499;SDS011;2772;42.700;23.304;2023-05-20T05:49:01;26.93;;;17.23;;
5499;SDS011;2772;42.700;23.304;2023-05-20T05:51:27;34.63;;;17.93;;
5499;SDS011;2772;42.700;23.304;2023-05-20T05:53:55;29.30;;;16.90;;
5499;SDS011;2772;42.700;23.304;2023-05-20T05:56:21;26.73;;;16.17;;
5499;SDS011;2772;42.700;23.304;2023-05-20T05:58:49;25.97;;;15.27;;
5499;SDS011;2772;42.700;23.304;2023-05-20T06:01:16;22.70;;;14.30;;
5499;SDS011;2772;42.700;23.304;2023-05-20T06:03:43;22.97;;;15.07;;
5499;SDS011;2772;42.700;23.304;2023-05-20T06:06:09;20.50;;;13.73;;
5499;SDS011;2772;42.700;23.304;2023-05-20T06:08:36;28.13;;;13.80;;
5499;SDS011;2772;42.700;23.304;2023-05-20T06:11:03;25.73;;;14.07;;
5499;SDS011;2772;42.700;23.304;2023-05-20T06:13:29;22.77;;;14.83;;
5499;SDS011;2772;42.700;23.304;2023-05-20T06:15:57;18.03;;;12.67;;
5499;SDS011;2772;42.700;23.304;2023-05-20T06:18:24;27.40;;;14.43;;
5499;SDS011;2772;42.700;23.304;2023-05-20T06:20:55;31.93;;;13.60;;
5499;SDS011;2772;42.700;23.304;2023-05-20T06:23:22;20.90;;;13.17;;
5499;SDS011;2772;42.700;23.304;2023-05-20T06:25:49;20.10;;;13.40;;
5499;SDS011;2772;42.700;23.304;2023-05-20T06:28:16;19.30;;;11.20;;
5499;SDS011;2772;42.700;23.304;2023-05-20T06:30:42;23.20;;;12.73;;
5499;SDS011;2772;42.700;23.304;2023-05-20T06:33:11;20.80;;;11.97;;
5499;SDS011;2772;42.700;23.304;2023-05-20T06:35:38;18.63;;;11.90;;
5499;SDS011;2772;42.700;23.304;2023-05-20T06:38:04;16.47;;;10.83;;
5499;SDS011;2772;42.700;23.304;2023-05-20T06:40:31;18.40;;;10.90;;
5499;SDS011;2772;42.700;23.304;2023-05-20T06:42:58;16.03;;;11.13;;
5499;SDS011;2772;42.700;23.304;2023-05-20T06:45:25;15.40;;;10.63;;
5499;SDS011;2772;42.700;23.304;2023-05-20T06:47:51;17.37;;;10.50;;
5499;SDS011;2772;42.700;23.304;2023-05-20T06:50:20;19.37;;;11.00;;
5499;SDS011;2772;42.700;23.304;2023-05-20T06:52:46;17.93;;;11.27;;
5499;SDS011;2772;42.700;23.304;2023-05-20T06:55:13;14.00;;;9.33;;
5499;SDS011;2772;42.700;23.304;2023-05-20T06:57:40;16.50;;;11.47;;
5499;SDS011;2772;42.700;23.304;2023-05-20T07:00:07;15.90;;;11.13;;
5499;SDS011;2772;42.700;23.304;2023-05-20T07:02:34;11.80;;;9.37;;
5499;SDS011;2772;42.700;23.304;2023-05-20T07:05:01;20.20;;;10.83;;
5499;SDS011;2772;42.700;23.304;2023-05-20T07:07:29;16.57;;;11.47;;
5499;SDS011;2772;42.700;23.304;2023-05-20T07:09:56;16.53;;;10.90;;
5499;SDS011;2772;42.700;23.304;2023-05-20T07:12:23;26.30;;;13.20;;
5499;SDS011;2772;42.700;23.304;2023-05-20T07:14:50;14.80;;;9.13;;
5499;SDS011;2772;42.700;23.304;2023-05-20T07:17:20;26.40;;;13.43;;
5499;SDS011;2772;42.700;23.304;2023-05-20T07:19:47;23.13;;;8.20;;
5499;SDS011;2772;42.700;23.304;2023-05-20T07:22:13;9.97;;;8.50;;
5499;SDS011;2772;42.700;23.304;2023-05-20T07:24:41;11.73;;;8.33;;
5499;SDS011;2772;42.700;23.304;2023-05-20T07:27:08;12.50;;;9.43;;
5499;SDS011;2772;42.700;23.304;2023-05-20T07:29:35;23.13;;;12.67;;
5499;SDS011;2772;42.700;23.304;2023-05-20T07:32:03;31.43;;;7.90;;
5499;SDS011;2772;42.700;23.304;2023-05-20T07:34:30;11.60;;;7.57;;
5499;SDS011;2772;42.700;23.304;2023-05-20T07:36:57;12.47;;;7.90;;
5499;SDS011;2772;42.700;23.304;2023-05-20T07:39:23;8.00;;;7.10;;
5499;SDS011;2772;42.700;23.304;2023-05-20T07:41:51;13.83;;;7.07;;
5499;SDS011;2772;42.700;23.304;2023-05-20T07:44:18;24.07;;;8.73;;
5499;SDS011;2772;42.700;23.304;2023-05-20T07:46:46;13.90;;;8.63;;
5499;SDS011;2772;42.700;23.304;2023-05-20T07:49:13;9.43;;;7.60;;
5499;SDS011;2772;42.700;23.304;2023-05-20T07:51:40;8.93;;;7.77;;
5499;SDS011;2772;42.700;23.304;2023-05-20T07:54:07;16.13;;;8.93;;
5499;SDS011;2772;42.700;23.304;2023-05-20T07:56:33;10.27;;;8.80;;
5499;SDS011;2772;42.700;23.304;2023-05-20T07:59:01;9.70;;;7.60;;
5499;SDS011;2772;42.700;23.304;2023-05-20T08:01:28;13.13;;;9.20;;
5499;SDS011;2772;42.700;23.304;2023-05-20T08:03:55;9.53;;;7.87;;
5499;SDS011;2772;42.700;23.304;2023-05-20T08:06:22;12.50;;;7.53;;
5499;SDS011;2772;42.700;23.304;2023-05-20T08:08:49;11.10;;;7.80;;
5499;SDS011;2772;42.700;23.304;2023-05-20T08:11:18;10.73;;;7.50;;
5499;SDS011;2772;42.700;23.304;2023-05-20T08:13:45;13.17;;;7.73;;
5499;SDS011;2772;42.700;23.304;2023-05-20T08:16:13;10.43;;;8.27;;
5499;SDS011;2772;42.700;23.304;2023-05-20T08:18:40;12.57;;;9.13;;
5499;SDS011;2772;42.700;23.304;2023-05-20T08:21:07;15.13;;;9.00;;
5499;SDS011;2772;42.700;23.304;2023-05-20T08:23:34;12.23;;;7.70;;
5499;SDS011;2772;42.700;23.304;2023-05-20T08:26:01;12.93;;;7.20;;
5499;SDS011;2772;42.700;23.304;2023-05-20T08:28:27;10.53;;;7.70;;
5499;SDS011;2772;42.700;23.304;2023-05-20T08:30:55;11.30;;;8.00;;
5499;SDS011;2772;42.700;23.304;2023-05-20T08:33:24;11.20;;;7.63;;
5499;SDS011;2772;42.700;23.304;2023-05-20T08:35:51;8.60;;;7.17;;
5499;SDS011;2772;42.700;23.304;2023-05-20T08:38:18;8.07;;;7.00;;
5499;SDS011;2772;42.700;23.304;2023-05-20T08:40:44;8.17;;;6.83;;
5499;SDS011;2772;42.700;23.304;2023-05-20T08:43:11;9.20;;;7.40;;
5499;SDS011;2772;42.700;23.304;2023-05-20T08:45:38;9.50;;;6.93;;
5499;SDS011;2772;42.700;23.304;2023-05-20T08:48:05;10.13;;;8.02;;
5499;SDS011;2772;42.700;23.304;2023-05-20T08:50:34;12.10;;;7.10;;
5499;SDS011;2772;42.700;23.304;2023-05-20T08:53:01;8.63;;;7.60;;
5499;SDS011;2772;42.700;23.304;2023-05-20T08:55:29;8.20;;;6.93;;
5499;SDS011;2772;42.700;23.304;2023-05-20T08:58:02;11.23;;;7.40;;
5499;SDS011;2772;42.700;23.304;2023-05-20T09:00:29;7.60;;;6.83;;
5499;SDS011;2772;42.700;23.304;2023-05-20T09:02:57;9.83;;;7.00;;
5499;SDS011;2772;42.700;23.304;2023-05-20T09:05:24;7.80;;;7.00;;
5499;SDS011;2772;42.700;23.304;2023-05-20T09:08:02;9.37;;;7.83;;
5499;SDS011;2772;42.700;23.304;2023-05-20T09:10:30;8.30;;;6.60;;
5499;SDS011;2772;42.700;23.304;2023-05-20T09:12:58;8.87;;;7.17;;
5499;SDS011;2772;42.700;23.304;2023-05-20T09:15:25;9.80;;;7.60;;
5499;SDS011;2772;42.700;23.304;2023-05-20T09:17:52;16.73;;;7.87;;
5499;SDS011;2772;42.700;23.304;2023-05-20T09:20:20;8.90;;;7.30;;
5499;SDS011;2772;42.700;23.304;2023-05-20T09:22:49;8.87;;;7.37;;
5499;SDS011;2772;42.700;23.304;2023-05-20T09:25:19;12.13;;;7.10;;
5499;SDS011;2772;42.700;23.304;2023-05-20T09:27:46;12.03;;;7.70;;
5499;SDS011;2772;42.700;23.304;2023-05-20T09:30:12;10.80;;;8.23;;
5499;SDS011;2772;42.700;23.304;2023-05-20T09:32:39;11.40;;;8.20;;
5499;SDS011;2772;42.700;23.304;2023-05-20T09:35:06;7.07;;;6.43;;
5499;SDS011;2772;42.700;23.304;2023-05-20T09:37:33;9.23;;;7.87;;
5499;SDS011;2772;42.700;23.304;2023-05-20T09:40:02;13.73;;;7.87;;
5499;SDS011;2772;42.700;23.304;2023-05-20T09:42:37;8.00;;;7.13;;
5499;SDS011;2772;42.700;23.304;2023-05-20T09:45:07;9.93;;;8.20;;
5499;SDS011;2772;42.700;23.304;2023-05-20T09:47:34;11.70;;;7.60;;
5499;SDS011;2772;42.700;23.304;2023-05-20T09:50:04;8.80;;;7.37;;
5499;SDS011;2772;42.700;23.304;2023-05-20T09:52:34;10.03;;;7.67;;
5499;SDS011;2772;42.700;23.304;2023-05-20T09:55:02;16.50;;;7.50;;
5499;SDS011;2772;42.700;23.304;2023-05-20T09:57:30;9.70;;;7.07;;
5499;SDS011;2772;42.700;23.304;2023-05-20T10:00:01;10.47;;;7.30;;
5499;SDS011;2772;42.700;23.304;2023-05-20T10:02:30;9.73;;;8.03;;
5499;SDS011;2772;42.700;23.304;2023-05-20T10:04:58;14.10;;;7.33;;
5499;SDS011;2772;42.700;23.304;2023-05-20T10:07:39;10.10;;;7.80;;
5499;SDS011;2772;42.700;23.304;2023-05-20T10:10:25;11.27;;;7.37;;
5499;SDS011;2772;42.700;23.304;2023-05-20T10:13:03;9.23;;;7.70;;
5499;SDS011;2772;42.700;23.304;2023-05-20T10:15:43;9.23;;;7.00;;
5499;SDS011;2772;42.700;23.304;2023-05-20T10:18:23;8.00;;;6.53;;
5499;SDS011;2772;42.700;23.304;2023-05-20T10:20:58;8.37;;;6.83;;
5499;SDS011;2772;42.700;23.304;2023-05-20T10:23:26;10.90;;;6.80;;
5499;SDS011;2772;42.700;23.304;2023-05-20T10:25:55;7.20;;;6.50;;
5499;SDS011;2772;42.700;23.304;2023-05-20T10:28:29;11.50;;;6.40;;
5499;SDS011;2772;42.700;23.304;2023-05-20T10:30:58;10.83;;;6.20;;
5499;SDS011;2772;42.700;23.304;2023-05-20T10:33:25;6.50;;;5.80;;
5499;SDS011;2772;42.700;23.304;2023-05-20T10:35:53;9.37;;;6.30;;
5499;SDS011;2772;42.700;23.304;2023-05-20T10:38:23;11.53;;;6.63;;
5499;SDS011;2772;42.700;23.304;2023-05-20T10:40:50;5.83;;;5.33;;
5499;SDS011;2772;42.700;23.304;2023-05-20T10:43:24;9.98;;;7.25;;
5499;SDS011;2772;42.700;23.304;2023-05-20T10:45:52;9.03;;;6.27;;
5499;SDS011;2772;42.700;23.304;2023-05-20T10:48:22;8.00;;;6.40;;
5499;SDS011;2772;42.700;23.304;2023-05-20T10:50:49;6.80;;;6.10;;
5499;SDS011;2772;42.700;23.304;2023-05-20T10:53:20;9.93;;;5.97;;
5499;SDS011;2772;42.700;23.304;2023-05-20T10:55:48;6.83;;;6.23;;
5499;SDS011;2772;42.700;23.304;2023-05-20T10:58:17;17.70;;;6.37;;
5499;SDS011;2772;42.700;23.304;2023-05-20T11:00:44;10.53;;;6.13;;
5499;SDS011;2772;42.700;23.304;2023-05-20T11:03:12;10.40;;;7.10;;
5499;SDS011;2772;42.700;23.304;2023-05-20T11:05:41;7.17;;;6.37;;
5499;SDS011;2772;42.700;23.304;2023-05-20T11:08:10;7.77;;;6.37;;
5499;SDS011;2772;42.700;23.304;2023-05-20T11:10:37;12.07;;;6.03;;
5499;SDS011;2772;42.700;23.304;2023-05-20T11:13:04;9.10;;;6.40;;
5499;SDS011;2772;42.700;23.304;2023-05-20T11:15:32;7.87;;;7.07;;
5499;SDS011;2772;42.700;23.304;2023-05-20T11:18:02;9.70;;;6.10;;
5499;SDS011;2772;42.700;23.304;2023-05-20T11:20:29;6.77;;;5.97;;
5499;SDS011;2772;42.700;23.304;2023-05-20T11:23:00;10.50;;;6.50;;
5499;SDS011;2772;42.700;23.304;2023-05-20T11:25:28;10.47;;;6.00;;
5499;SDS011;2772;42.700;23.304;2023-05-20T11:27:55;8.63;;;6.70;;
5499;SDS011;2772;42.700;23.304;2023-05-20T11:30:22;8.13;;;6.60;;
5499;SDS011;2772;42.700;23.304;2023-05-20T11:32:56;7.83;;;6.20;;
5499;SDS011;2772;42.700;23.304;2023-05-20T11:35:25;6.83;;;6.13;;
5499;SDS011;2772;42.700;23.304;2023-05-20T11:37:53;9.33;;;6.00;;
5499;SDS011;2772;42.700;23.304;2023-05-20T11:40:26;10.30;;;5.93;;
5499;SDS011;2772;42.700;23.304;2023-05-20T11:42:53;7.80;;;6.30;;
5499;SDS011;2772;42.700;23.304;2023-05-20T11:45:21;9.50;;;6.93;;
5499;SDS011;2772;42.700;23.304;2023-05-20T11:47:57;6.50;;;5.90;;
5499;SDS011;2772;42.700;23.304;2023-05-20T11:50:25;6.50;;;5.83;;
5499;SDS011;2772;42.700;23.304;2023-05-20T11:52:55;7.83;;;5.90;;
5499;SDS011;2772;42.700;23.304;2023-05-20T11:55:23;9.63;;;6.23;;
5499;SDS011;2772;42.700;23.304;2023-05-20T11:57:52;6.43;;;5.70;;
5499;SDS011;2772;42.700;23.304;2023-05-20T12:00:20;6.30;;;5.60;;
5499;SDS011;2772;42.700;23.304;2023-05-20T12:02:47;7.33;;;5.80;;
5499;SDS011;2772;42.700;23.304;2023-05-20T12:05:14;9.63;;;6.23;;
5499;SDS011;2772;42.700;23.304;2023-05-20T12:07:41;7.13;;;6.00;;
5499;SDS011;2772;42.700;23.304;2023-05-20T12:10:08;9.20;;;6.40;;
5499;SDS011;2772;42.700;23.304;2023-05-20T12:12:35;14.53;;;6.90;;
5499;SDS011;2772;42.700;23.304;2023-05-20T12:15:03;6.20;;;5.60;;
5499;SDS011;2772;42.700;23.304;2023-05-20T12:17:33;9.73;;;6.43;;
5499;SDS011;2772;42.700;23.304;2023-05-20T12:20:11;8.77;;;6.23;;
5499;SDS011;2772;42.700;23.304;2023-05-20T12:22:38;11.37;;;6.67;;
5499;SDS011;2772;42.700;23.304;2023-05-20T12:25:05;8.00;;;6.30;;
5499;SDS011;2772;42.700;23.304;2023-05-20T12:27:32;17.00;;;7.37;;
5499;SDS011;2772;42.700;23.304;2023-05-20T12:29:59;9.50;;;7.20;;
5499;SDS011;2772;42.700;23.304;2023-05-20T12:32:27;8.77;;;6.47;;
5499;SDS011;2772;42.700;23.304;2023-05-20T12:34:54;11.33;;;6.33;;
5499;SDS011;2772;42.700;23.304;2023-05-20T12:37:20;13.70;;;6.17;;
5499;SDS011;2772;42.700;23.304;2023-05-20T12:39:47;6.77;;;5.93;;
5499;SDS011;2772;42.700;23.304;2023-05-20T12:42:14;6.33;;;5.70;;
5499;SDS011;2772;42.700;23.304;2023-05-20T12:44:41;5.43;;;4.93;;
5499;SDS011;2772;42.700;23.304;2023-05-20T12:47:07;3.60;;;3.33;;
5499;SDS011;2772;42.700;23.304;2023-05-20T12:49:36;4.80;;;3.23;;
5499;SDS011;2772;42.700;23.304;2023-05-20T12:52:02;4.40;;;3.67;;
5499;SDS011;2772;42.700;23.304;2023-05-20T12:54:29;3.40;;;3.20;;
5499;SDS011;2772;42.700;23.304;2023-05-20T12:56:56;5.63;;;3.47;;
5499;SDS011;2772;42.700;23.304;2023-05-20T12:59:23;4.30;;;3.93;;
5499;SDS011;2772;42.700;23.304;2023-05-20T13:01:50;3.37;;;3.17;;
5499;SDS011;2772;42.700;23.304;2023-05-20T13:04:17;5.67;;;4.53;;
5499;SDS011;2772;42.700;23.304;2023-05-20T13:06:45;9.00;;;4.50;;
5499;SDS011;2772;42.700;23.304;2023-05-20T13:09:11;5.87;;;4.10;;
5499;SDS011;2772;42.700;23.304;2023-05-20T13:11:38;5.70;;;4.80;;
5499;SDS011;2772;42.700;23.304;2023-05-20T13:14:05;5.47;;;4.67;;
5499;SDS011;2772;42.700;23.304;2023-05-20T13:16:31;8.90;;;5.10;;
5499;SDS011;2772;42.700;23.304;2023-05-20T13:18:58;7.50;;;6.00;;
5499;SDS011;2772;42.700;23.304;2023-05-20T13:21:25;7.57;;;5.40;;
5499;SDS011;2772;42.700;23.304;2023-05-20T13:23:53;6.47;;;4.93;;
5499;SDS011;2772;42.700;23.304;2023-05-20T13:26:20;6.77;;;5.07;;
5499;SDS011;2772;42.700;23.304;2023-05-20T13:28:47;6.53;;;5.80;;
5499;SDS011;2772;42.700;23.304;2023-05-20T13:31:14;6.43;;;5.43;;
5499;SDS011;2772;42.700;23.304;2023-05-20T13:33:41;6.97;;;6.27;;
5499;SDS011;2772;42.700;23.304;2023-05-20T13:36:07;6.30;;;5.70;;
5499;SDS011;2772;42.700;23.304;2023-05-20T13:38:34;5.60;;;5.20;;
5499;SDS011;2772;42.700;23.304;2023-05-20T13:41:02;8.20;;;6.30;;
5499;SDS011;2772;42.700;23.304;2023-05-20T13:43:30;8.83;;;6.10;;
5499;SDS011;2772;42.700;23.304;2023-05-20T13:45:57;6.93;;;5.50;;
5499;SDS011;2772;42.700;23.304;2023-05-20T13:48:24;12.57;;;7.33;;
5499;SDS011;2772;42.700;23.304;2023-05-20T13:50:50;6.47;;;5.90;;
5499;SDS011;2772;42.700;23.304;2023-05-20T13:53:17;7.80;;;5.73;;
5499;SDS011;2772;42.700;23.304;2023-05-20T13:55:44;10.67;;;5.60;;
5499;SDS011;2772;42.700;23.304;2023-05-20T13:58:12;7.90;;;6.67;;
5499;SDS011;2772;42.700;23.304;2023-05-20T14:00:39;7.37;;;6.00;;
5499;SDS011;2772;42.700;23.304;2023-05-20T14:03:06;11.20;;;8.17;;
5499;SDS011;2772;42.700;23.304;2023-05-20T14:05:34;6.50;;;5.90;;
5499;SDS011;2772;42.700;23.304;2023-05-20T14:08:01;6.40;;;5.40;;
5499;SDS011;2772;42.700;23.304;2023-05-20T14:10:28;8.03;;;6.00;;
5499;SDS011;2772;42.700;23.304;2023-05-20T14:12:56;14.50;;;5.57;;
5499;SDS011;2772;42.700;23.304;2023-05-20T14:15:25;8.50;;;6.80;;
5499;SDS011;2772;42.700;23.304;2023-05-20T14:17:54;5.67;;;5.13;;
5499;SDS011;2772;42.700;23.304;2023-05-20T14:20:21;8.90;;;5.70;;
5499;SDS011;2772;42.700;23.304;2023-05-20T14:22:48;9.67;;;6.97;;
5499;SDS011;2772;42.700;23.304;2023-05-20T14:25:15;8.30;;;6.03;;
5499;SDS011;2772;42.700;23.304;2023-05-20T14:27:41;6.90;;;6.30;;
5499;SDS011;2772;42.700;23.304;2023-05-20T14:30:08;9.00;;;7.10;;
5499;SDS011;2772;42.700;23.304;2023-05-20T14:32:37;13.37;;;5.53;;
5499;SDS011;2772;42.700;23.304;2023-05-20T14:35:04;6.70;;;5.60;;
5499;SDS011;2772;42.700;23.304;2023-05-20T14:37:32;8.93;;;6.63;;
5499;SDS011;2772;42.700;23.304;2023-05-20T14:39:58;9.87;;;6.70;;
5499;SDS011;2772;42.700;23.304;2023-05-20T14:42:26;10.43;;;7.47;;
5499;SDS011;2772;42.700;23.304;2023-05-20T14:44:54;7.47;;;6.40;;
5499;SDS011;2772;42.700;23.304;2023-05-20T14:47:21;7.37;;;6.20;;